Time;durP1;ratioP1;P1;durP2;ratioP2;P2;SDS_P1;SDS_P2;PMS_P1;PMS_P2;Temp;Humidity;BMP_temperature;BMP_pressure;BME280_temperature;BME280_humidity;BME280_pressure;Samples;Min_cycle;Max_cycle;Signal;HPM_P1;HPM_P2
2021/11/25 00:00:24;;;;;;;48.25;28.07;;;;;;;5.80;95.07;100911.06;1589707;87;25809;-78
2021/11/25 00:02:53;;;;;;;54.27;26.10;;;;;;;5.81;95.09;100907.44;1551895;89;26017;-78
2021/11/25 00:05:20;;;;;;;49.33;27.48;;;;;;;5.80;95.12;100908.41;1591995;89;26599;-78
2021/11/25 00:07:47;;;;;;;49.18;27.42;;;;;;;5.81;95.07;100911.42;1628306;87;25841;-78
2021/11/25 00:10:15;;;;;;;47.38;27.27;;;;;;;5.81;95.11;100912.75;1569751;88;26385;-78
2021/11/25 00:12:42;;;;;;;50.85;28.27;;;;;;;5.84;95.15;100905.83;1591640;88;26022;-78
2021/11/25 00:15:11;;;;;;;47.50;28.02;;;;;;;5.81;95.03;100908.28;1591587;88;27673;-79
2021/11/25 00:17:39;;;;;;;49.88;28.35;;;;;;;5.81;95.07;100910.09;1617257;88;25827;-79
2021/11/25 00:20:11;;;;;;;43.58;24.90;;;;;;;5.79;95.02;100909.41;1561401;88;25969;-79
2021/11/25 00:22:40;;;;;;;49.20;27.07;;;;;;;5.79;95.08;100906.75;1572044;88;26438;-79
2021/11/25 00:25:08;;;;;;;45.98;27.15;;;;;;;5.77;95.06;100898.09;1610265;86;25899;-79
2021/11/25 00:27:36;;;;;;;47.85;27.60;;;;;;;5.75;95.08;100899.55;1617470;87;27642;-79
2021/11/25 00:30:05;;;;;;;50.48;27.90;;;;;;;5.75;95.10;100894.75;1647460;86;26595;-78
2021/11/25 00:32:32;;;;;;;43.80;26.02;;;;;;;5.77;95.19;100895.44;1611787;86;25798;-78
2021/11/25 00:34:59;;;;;;;49.08;27.80;;;;;;;5.77;95.05;100899.42;1608516;86;25876;-79
2021/11/25 00:37:26;;;;;;;55.65;29.15;;;;;;;5.76;95.07;100893.75;1605873;86;25838;-78
2021/11/25 00:39:53;;;;;;;47.43;27.27;;;;;;;5.77;95.17;100892.30;1656057;86;27586;-79
2021/11/25 00:42:21;;;;;;;51.80;27.95;;;;;;;5.77;95.04;100885.64;1612517;86;25892;-79
2021/11/25 00:44:48;;;;;;;45.35;26.57;;;;;;;5.81;95.11;100883.52;1632647;86;25910;-79
2021/11/25 00:47:15;;;;;;;49.00;27.60;;;;;;;5.80;94.96;100885.33;1632890;86;25842;-78
2021/11/25 00:49:42;;;;;;;46.73;26.15;;;;;;;5.82;95.02;100888.67;1655839;86;25794;-78
2021/11/25 00:52:09;;;;;;;44.42;26.50;;;;;;;5.81;94.90;100883.03;1613034;86;27653;-79
2021/11/25 00:54:36;;;;;;;46.75;27.60;;;;;;;5.81;94.87;100885.69;1585212;87;25885;-79
2021/11/25 00:57:03;;;;;;;44.53;26.62;;;;;;;5.80;94.87;100884.00;1604880;87;25390;-78
2021/11/25 00:59:30;;;;;;;46.20;26.97;;;;;;;5.79;94.90;100877.52;1630360;87;25859;-79
2021/11/25 01:01:57;;;;;;;42.90;26.73;;;;;;;5.78;94.90;100875.34;1592214;87;25856;-79
2021/11/25 01:04:24;;;;;;;47.10;26.40;;;;;;;5.76;94.82;100870.67;1572655;88;27676;-78
2021/11/25 01:06:52;;;;;;;43.25;25.23;;;;;;;5.76;94.88;100867.17;1592118;88;25671;-78
2021/11/25 01:09:19;;;;;;;43.20;23.85;;;;;;;5.76;94.79;100867.17;1618891;88;26490;-79
2021/11/25 01:11:47;;;;;;;46.42;26.62;;;;;;;5.75;94.70;100868.98;1586590;87;25926;-79
2021/11/25 01:14:15;;;;;;;42.67;25.15;;;;;;;5.76;94.85;100860.52;1589989;88;25779;-78
2021/11/25 01:16:43;;;;;;;45.78;25.77;;;;;;;5.76;94.87;100861.37;1589289;88;27561;-79
2021/11/25 01:19:10;;;;;;;45.75;25.62;;;;;;;5.79;94.95;100849.60;1613926;88;25940;-80
2021/11/25 01:21:37;;;;;;;44.53;25.62;;;;;;;5.81;94.96;100855.12;1583990;88;25378;-79
2021/11/25 01:24:04;;;;;;;49.42;26.77;;;;;;;5.81;94.91;100851.62;1570059;88;26483;-78
2021/11/25 01:26:31;;;;;;;48.30;27.40;;;;;;;5.81;94.91;100851.62;1588990;87;26631;-78
2021/11/25 01:28:59;;;;;;;46.35;26.35;;;;;;;5.81;94.96;100851.62;1612428;88;27461;-79
2021/11/25 01:31:26;;;;;;;49.55;28.00;;;;;;;5.78;94.95;100848.76;1568092;88;26583;-79
2021/11/25 01:33:53;;;;;;;54.13;26.95;;;;;;;5.77;95.06;100842.27;1588706;88;25836;-80
2021/11/25 01:36:20;;;;;;;50.08;27.90;;;;;;;5.79;95.11;100842.47;1568234;88;26412;-79
2021/11/25 01:38:47;;;;;;;45.63;26.77;;;;;;;5.79;95.12;100840.30;1589044;88;26561;-78
2021/11/25 01:41:14;;;;;;;46.58;27.98;;;;;;;5.80;95.12;100842.80;1568205;88;27059;-78
2021/11/25 01:43:41;;;;;;;48.50;26.73;;;;;;;5.81;95.16;100835.18;1662841;85;26077;-80
2021/11/25 01:46:16;;;;;;;48.75;26.35;;;;;;;5.83;95.06;100843.00;1611409;86;25893;-78
2021/11/25 01:48:47;;;;;;;49.18;28.12;;;;;;;5.79;94.89;100833.17;1654151;86;25804;-79
2021/11/25 01:51:16;;;;;;;50.35;26.00;;;;;;;5.79;95.00;100838.48;1608070;86;25901;-78
2021/11/25 01:53:43;;;;;;;45.83;25.77;;;;;;;5.77;94.98;100832.97;1631723;86;27529;-78
2021/11/25 01:56:11;;;;;;;46.80;26.30;;;;;;;5.74;94.91;100827.94;1629952;86;26451;-78
2021/11/25 01:58:38;;;;;;;43.80;26.42;;;;;;;5.74;95.01;100821.30;1596183;88;26632;-78
2021/11/25 02:01:10;;;;;;;47.33;27.52;;;;;;;5.75;95.01;100820.33;1594830;87;25795;-80
2021/11/25 02:03:38;;;;;;;46.08;26.07;;;;;;;5.74;95.01;100823.47;1576672;87;25841;-79
2021/11/25 02:06:06;;;;;;;48.78;26.95;;;;;;;5.73;94.98;100816.47;1620959;86;27341;-78
2021/11/25 02:08:33;;;;;;;42.83;26.62;;;;;;;5.74;95.03;100812.00;1654432;86;25992;-79
2021/11/25 02:11:00;;;;;;;47.55;28.07;;;;;;;5.74;95.02;100804.02;1611513;86;25832;-79
2021/11/25 02:13:29;;;;;;;43.75;26.25;;;;;;;5.75;95.01;100797.22;1631236;86;25868;-78
2021/11/25 02:15:58;;;;;;;44.90;25.88;;;;;;;5.76;94.96;100797.58;1626640;86;26069;-78
2021/11/25 02:18:26;;;;;;;44.88;26.00;;;;;;;5.76;94.91;100804.22;1656329;86;28136;-79
2021/11/25 02:20:58;;;;;;;47.85;27.13;;;;;;;5.75;94.93;100795.08;1599640;86;25416;-78
2021/11/25 02:23:27;;;;;;;45.55;25.55;;;;;;;5.75;94.84;100786.59;1656039;85;25779;-79
2021/11/25 02:25:55;;;;;;;40.83;25.37;;;;;;;5.74;94.85;100790.73;1625975;86;26489;-79
2021/11/25 02:28:26;;;;;;;41.73;25.02;;;;;;;5.74;94.82;100783.60;1650432;86;25814;-79
2021/11/25 02:30:54;;;;;;;44.18;26.25;;;;;;;5.75;94.76;100786.59;1622052;86;28636;-79
2021/11/25 02:33:21;;;;;;;46.83;27.17;;;;;;;5.74;94.80;100778.29;1610207;86;26558;-78
2021/11/25 02:35:48;;;;;;;42.15;25.43;;;;;;;5.75;94.73;100775.95;1594654;88;25981;-79
2021/11/25 02:38:16;;;;;;;46.60;26.40;;;;;;;5.75;94.67;100777.28;1620146;88;25883;-79
2021/11/25 02:40:50;;;;;;;46.35;26.52;;;;;;;5.75;94.71;100771.97;1575231;88;25394;-78
2021/11/25 02:43:24;;;;;;;46.18;26.57;;;;;;;5.77;94.71;100773.17;1595052;87;27474;-78
2021/11/25 02:46:02;;;;;;;43.98;25.45;;;;;;;5.77;94.62;100766.03;1577412;88;25835;-79
2021/11/25 02:48:34;;;;;;;46.02;26.50;;;;;;;5.77;94.62;100759.88;1635727;86;26061;-79
2021/11/25 02:51:01;;;;;;;44.90;25.70;;;;;;;5.79;94.59;100757.42;1646913;86;25781;-79
2021/11/25 02:53:32;;;;;;;46.83;26.55;;;;;;;5.81;94.49;100754.59;1632778;86;25684;-78
2021/11/25 02:56:15;;;;;;;45.17;26.80;;;;;;;5.80;94.42;100749.77;1614665;86;32930;-79
2021/11/25 02:58:45;;;;;;;48.87;27.42;;;;;;;5.81;94.38;100747.95;1660355;85;25913;-79
2021/11/25 03:01:20;;;;;;;45.23;26.03;;;;;;;5.81;94.31;100754.11;1657514;86;25343;-79
2021/11/25 03:03:48;;;;;;;44.03;25.70;;;;;;;5.80;94.20;100751.58;1617350;86;26505;-78
2021/11/25 03:06:17;;;;;;;44.83;25.70;;;;;;;5.80;94.13;100745.78;1625716;87;25880;-80
2021/11/25 03:08:45;;;;;;;51.50;28.27;;;;;;;5.79;94.09;100744.12;1631946;86;27659;-78
2021/11/25 03:11:15;;;;;;;44.58;26.70;;;;;;;5.81;94.05;100741.31;1632768;86;25919;-79
2021/11/25 03:13:47;;;;;;;49.63;25.30;;;;;;;5.82;94.04;100740.30;1583726;86;32535;-78
2021/11/25 03:16:17;;;;;;;41.45;24.45;;;;;;;5.83;93.90;100739.33;1596708;88;26268;-78
2021/11/25 03:18:44;;;;;;;43.65;25.88;;;;;;;5.82;93.78;100738.48;1605354;87;26024;-79
2021/11/25 03:21:15;;;;;;;40.43;24.60;;;;;;;5.83;93.72;100741.98;1632019;86;28294;-79
2021/11/25 03:23:45;;;;;;;40.85;25.15;;;;;;;5.83;93.65;100732.20;1537416;86;26053;-79
2021/11/25 03:26:16;;;;;;;43.35;25.60;;;;;;;5.84;93.42;100729.05;1612000;87;25926;-79
2021/11/25 03:28:44;;;;;;;39.92;25.30;;;;;;;5.82;93.24;100727.86;1599063;87;25931;-79
2021/11/25 03:31:18;;;;;;;40.15;24.20;;;;;;;5.79;93.08;100722.86;1598299;88;26389;-78
2021/11/25 03:33:46;;;;;;;40.70;23.90;;;;;;;5.78;93.10;100715.86;1595544;86;27237;-78
2021/11/25 03:36:14;;;;;;;39.70;23.42;;;;;;;5.75;92.89;100713.50;1597691;88;26256;-79
2021/11/25 03:38:42;;;;;;;43.23;25.57;;;;;;;5.74;92.86;100712.33;1603613;87;25809;-78
2021/11/25 03:41:11;;;;;;;36.80;22.45;;;;;;;5.73;92.88;100712.81;1645551;86;25859;-79
2021/11/25 03:43:39;;;;;;;41.02;24.72;;;;;;;5.71;92.84;100696.71;1634504;86;25922;-78
2021/11/25 03:46:07;;;;;;;44.08;25.32;;;;;;;5.69;92.86;100694.19;1594892;88;28371;-79
2021/11/25 03:48:34;;;;;;;42.10;25.88;;;;;;;5.66;92.72;100687.86;1567859;89;26275;-79
2021/11/25 03:51:05;;;;;;;45.63;26.75;;;;;;;5.63;92.62;100689.48;1592238;89;26537;-78
2021/11/25 03:53:35;;;;;;;50.98;27.48;;;;;;;5.62;92.74;100686.50;1551113;91;26250;-79
2021/11/25 03:56:03;;;;;;;50.58;29.30;;;;;;;5.61;92.68;100684.81;1600630;88;25813;-79
2021/11/25 03:58:31;;;;;;;47.05;28.45;;;;;;;5.60;92.80;100676.52;1623615;88;27494;-78
2021/11/25 04:00:58;;;;;;;54.70;30.65;;;;;;;5.62;92.83;100680.34;1587482;86;25814;-78
2021/11/25 04:03:26;;;;;;;52.20;31.57;;;;;;;5.63;92.79;100678.86;1641352;86;26557;-79
2021/11/25 04:05:53;;;;;;;55.83;31.75;;;;;;;5.62;92.70;100677.69;1599687;86;26582;-78
2021/11/25 04:08:20;;;;;;;56.25;32.30;;;;;;;5.62;92.75;100675.03;1647968;86;25752;-79
2021/11/25 04:10:48;;;;;;;50.78;28.95;;;;;;;5.63;92.74;100671.37;1624672;86;28337;-78
2021/11/25 04:13:15;;;;;;;48.30;28.50;;;;;;;5.63;92.64;100678.02;1645168;85;26547;-79
2021/11/25 04:15:42;;;;;;;55.48;31.70;;;;;;;5.62;92.60;100673.70;1610399;86;26574;-79
2021/11/25 04:18:10;;;;;;;54.77;31.90;;;;;;;5.62;92.56;100667.06;1629831;87;25839;-79
2021/11/25 04:20:37;;;;;;;51.60;30.35;;;;;;;5.61;92.46;100668.88;1620140;87;25901;-78
2021/11/25 04:23:06;;;;;;;63.55;34.53;;;;;;;5.60;92.44;100660.58;1566765;90;28639;-79
2021/11/25 04:25:34;;;;;;;55.73;30.75;;;;;;;5.60;92.46;100660.58;1565236;90;26203;-78
2021/11/25 04:28:03;;;;;;;60.03;33.48;;;;;;;5.60;92.27;100654.42;1610765;87;25826;-79
2021/11/25 04:35:54;;;;;;;61.83;34.45;;;;;;;5.55;92.08;100642.92;1605657;87;28092;-79
2021/11/25 04:38:22;;;;;;;58.58;33.13;;;;;;;5.53;92.11;100636.09;1607002;87;26462;-79
2021/11/25 04:40:57;;;;;;;56.02;32.95;;;;;;;5.53;92.10;100633.43;1597918;86;25457;-78
2021/11/25 04:43:27;;;;;;;60.08;40.48;;;;;;;5.51;91.87;100632.75;1620627;86;43778;-79
2021/11/25 04:45:55;;;;;;;56.15;34.20;;;;;;;5.67;91.21;100624.41;1570067;87;25821;-79
2021/11/25 04:48:25;;;;;;;57.20;32.17;;;;;;;5.63;91.38;100619.55;1614062;87;27591;-78
2021/11/25 04:50:53;;;;;;;58.80;33.30;;;;;;;5.59;91.30;100613.73;1622286;87;25850;-79
2021/11/25 04:53:20;;;;;;;54.63;31.75;;;;;;;5.55;91.24;100608.88;1581182;87;26086;-78
2021/11/25 04:55:48;;;;;;;55.43;32.23;;;;;;;5.51;91.08;100608.84;1597729;87;26004;-79
2021/11/25 04:58:15;;;;;;;56.90;31.85;;;;;;;5.47;91.03;100610.98;1624919;87;26363;-79
2021/11/25 05:00:43;;;;;;;54.55;31.37;;;;;;;5.43;90.78;100606.97;1658431;86;27598;-79
2021/11/25 05:03:11;;;;;;;57.67;31.17;;;;;;;5.37;90.58;100607.07;1595117;86;25881;-79
2021/11/25 05:05:39;;;;;;;52.95;30.82;;;;;;;5.31;90.42;100604.19;1559086;87;25929;-80
2021/11/25 05:08:06;;;;;;;57.30;32.13;;;;;;;5.26;90.27;100600.66;1626084;87;25897;-79
2021/11/25 05:10:33;;;;;;;53.17;31.75;;;;;;;5.23;90.16;100596.16;1616193;87;25988;-78
2021/11/25 05:13:00;;;;;;;57.25;32.00;;;;;;;5.18;89.91;100602.41;1558993;87;28183;-79
2021/11/25 05:15:27;;;;;;;56.80;30.50;;;;;;;5.13;89.79;100599.40;1607799;87;25857;-79
2021/11/25 05:17:55;;;;;;;54.88;32.70;;;;;;;5.10;89.80;100597.88;1632324;86;25886;-79
2021/11/25 05:20:22;;;;;;;54.70;31.10;;;;;;;5.07;89.62;100590.72;1631867;86;26530;-79
2021/11/25 05:22:50;;;;;;;54.83;32.08;;;;;;;5.01;89.35;100580.19;1588657;86;26150;-78
2021/11/25 05:25:18;;;;;;;53.92;31.40;;;;;;;4.94;89.12;100587.08;1601517;87;27394;-79
2021/11/25 05:27:46;;;;;;;56.10;32.65;;;;;;;4.89;89.07;100585.39;1621515;86;25915;-79
2021/11/25 05:30:15;;;;;;;54.55;31.73;;;;;;;4.84;88.81;100581.02;1617642;87;26003;-78
2021/11/25 05:32:43;;;;;;;55.20;33.42;;;;;;;4.78;88.58;100574.98;1570187;87;26979;-79
2021/11/25 05:35:13;;;;;;;53.73;31.00;;;;;;;4.72;88.36;100572.09;1582914;85;26567;-80
2021/11/25 05:37:41;;;;;;;57.58;33.08;;;;;;;4.64;88.32;100572.86;1652669;85;27879;-80
2021/11/25 05:40:12;;;;;;;56.35;33.42;;;;;;;4.59;88.39;100572.46;1657414;85;26631;-79
2021/11/25 05:42:39;;;;;;;56.30;32.78;;;;;;;4.53;88.11;100566.44;1615875;85;25908;-78
2021/11/25 05:45:10;;;;;;;63.60;34.25;;;;;;;4.45;88.09;100565.84;1605941;85;26420;-78
2021/11/25 05:47:38;;;;;;;;;;;;;;;4.41;87.91;100566.27;1656067;85;25926;-78
2021/11/25 05:50:11;;;;;;;54.03;32.58;;;;;;;4.32;87.70;100558.72;1660845;84;27506;-79
2021/11/25 05:52:39;;;;;;;56.30;31.55;;;;;;;4.27;87.85;100562.32;1651134;85;25773;-78
2021/11/25 05:55:08;;;;;;;58.30;33.33;;;;;;;4.21;87.41;100568.22;1583752;86;26661;-79
2021/11/25 05:57:35;;;;;;;57.73;33.08;;;;;;;4.17;87.42;100562.02;1656356;85;26614;-79
2021/11/25 06:00:06;;;;;;;52.73;32.10;;;;;;;4.12;87.20;100562.46;1620347;85;26540;-80
2021/11/25 06:02:35;;;;;;;56.88;33.65;;;;;;;4.05;87.15;100561.36;1616193;85;27511;-79
2021/11/25 06:05:02;;;;;;;55.40;32.63;;;;;;;4.02;87.17;100564.81;1613355;85;26620;-79
2021/11/25 06:07:29;;;;;;;58.50;31.82;;;;;;;3.99;87.12;100565.09;1662217;85;26465;-78
2021/11/25 06:09:56;;;;;;;59.00;32.30;;;;;;;3.94;86.90;100566.84;1631361;85;26008;-78
2021/11/25 06:12:24;;;;;;;56.55;32.45;;;;;;;3.90;86.80;100562.81;1612565;85;25913;-80
2021/11/25 06:14:51;;;;;;;55.30;31.62;;;;;;;3.85;86.80;100562.41;1653336;85;28422;-77
2021/11/25 06:17:18;;;;;;;55.92;31.70;;;;;;;3.84;86.81;100559.42;1662308;85;26592;-77
2021/11/25 06:19:45;;;;;;;55.12;30.85;;;;;;;3.81;86.81;100559.70;1619104;86;26683;-77
2021/11/25 06:22:12;;;;;;;58.23;31.07;;;;;;;3.75;86.81;100557.16;1613277;85;25974;-77
2021/11/25 06:24:39;;;;;;;60.05;32.88;;;;;;;3.72;86.73;100557.94;1603956;85;25853;-78
2021/11/25 06:27:06;;;;;;;62.17;33.05;;;;;;;3.68;86.88;100551.23;1658628;85;27556;-77
2021/11/25 06:29:33;;;;;;;53.08;32.93;;;;;;;3.67;86.83;100549.58;1595551;85;26564;-77
2021/11/25 06:32:00;;;;;;;51.95;32.03;;;;;;;3.65;86.68;100544.92;1635191;85;25900;-77
2021/11/25 06:34:27;;;;;;;54.93;30.85;;;;;;;3.62;86.57;100544.71;1620800;85;26607;-77
2021/11/25 06:36:54;;;;;;;53.70;32.15;;;;;;;3.60;86.39;100543.17;1658300;85;26549;-77
2021/11/25 06:39:21;;;;;;;58.08;32.20;;;;;;;3.56;86.21;100537.83;1602408;86;27488;-78
2021/11/25 06:41:48;;;;;;;55.52;32.28;;;;;;;3.52;86.19;100538.61;1581562;86;25893;-77
2021/11/25 06:44:15;;;;;;;55.78;32.83;;;;;;;3.50;86.37;100537.08;1593412;86;26036;-78
2021/11/25 06:46:42;;;;;;;58.00;31.35;;;;;;;3.50;86.46;100529.14;1620289;86;26530;-77
2021/11/25 06:49:09;;;;;;;68.85;40.45;;;;;;;3.49;86.34;100525.65;1603505;86;26332;-77
2021/11/25 06:51:39;;;;;;;56.70;33.83;;;;;;;3.47;86.36;100522.79;1550644;86;28570;-78
2021/11/25 06:54:07;;;;;;;51.08;31.50;;;;;;;3.45;86.42;100522.10;1584772;88;26028;-78
2021/11/25 06:56:34;;;;;;;53.35;30.80;;;;;;;3.44;86.51;100521.77;1617201;86;26501;-78
2021/11/25 06:59:01;;;;;;;49.77;30.43;;;;;;;3.43;86.66;100521.41;1596979;86;25921;-77
2021/11/25 07:01:28;;;;;;;51.80;30.70;;;;;;;3.43;86.61;100518.77;1574227;86;25837;-77
2021/11/25 07:03:55;;;;;;;49.38;29.65;;;;;;;3.42;86.56;100517.11;1610717;86;27945;-78
2021/11/25 07:06:22;;;;;;;53.83;31.87;;;;;;;3.40;86.63;100501.34;1580555;87;26784;-77
2021/11/25 07:08:49;;;;;;;54.83;30.48;;;;;;;3.40;86.60;100496.05;1582285;86;26058;-77
2021/11/25 07:11:16;;;;;;;54.58;32.30;;;;;;;3.40;86.69;100493.91;1623469;86;26541;-77
2021/11/25 07:13:43;;;;;;;50.95;31.27;;;;;;;3.38;86.67;100492.71;1629972;86;25903;-77
2021/11/25 07:16:10;;;;;;;55.00;32.20;;;;;;;3.38;86.79;100495.36;1625010;86;27718;-78
2021/11/25 07:18:38;;;;;;;55.70;31.87;;;;;;;3.37;86.87;100495.52;1580556;88;26133;-77
2021/11/25 07:21:05;;;;;;;55.28;31.33;;;;;;;3.39;86.88;100500.17;1622892;88;25371;-77
2021/11/25 07:23:32;;;;;;;55.15;30.92;;;;;;;3.39;86.91;100494.87;1580415;88;25883;-77
2021/11/25 07:25:59;;;;;;;55.00;33.18;;;;;;;3.38;86.93;100493.23;1580372;88;25951;-77
2021/11/25 07:28:26;;;;;;;54.93;32.08;;;;;;;3.36;86.98;100489.38;1622464;88;27623;-77
2021/11/25 07:30:53;;;;;;;54.18;31.87;;;;;;;3.36;87.08;100486.73;1601149;88;26589;-77
2021/11/25 07:33:20;;;;;;;54.70;30.55;;;;;;;3.35;87.09;100481.11;1623709;88;25922;-77
2021/11/25 07:35:47;;;;;;;54.70;32.25;;;;;;;3.35;87.16;100474.97;1559377;88;26608;-77
2021/11/25 07:38:15;;;;;;;55.75;30.43;;;;;;;3.33;87.23;100459.23;1622753;88;25713;-78
2021/11/25 07:40:44;;;;;;;53.33;30.52;;;;;;;3.34;87.36;100458.24;1601672;86;27568;-78
2021/11/25 07:43:12;;;;;;;48.38;29.82;;;;;;;3.34;87.48;100453.42;1655337;86;25906;-78
2021/11/25 07:45:39;;;;;;;53.13;29.63;;;;;;;3.36;87.56;100451.50;1590520;86;26198;-78
2021/11/25 07:48:06;;;;;;;56.65;31.37;;;;;;;3.38;87.63;100449.55;1634607;86;25919;-76
2021/11/25 07:50:34;;;;;;;58.98;30.95;;;;;;;3.40;87.64;100443.61;1619180;86;25844;-77
2021/11/25 07:53:01;;;;;;;54.70;30.88;;;;;;;3.39;87.60;100436.63;1652031;86;27474;-77
2021/11/25 07:55:29;;;;;;;49.10;29.80;;;;;;;3.39;87.60;100432.18;1628506;86;25751;-77
2021/11/25 07:57:56;;;;;;;52.03;30.72;;;;;;;3.38;87.60;100429.17;1624363;86;26579;-78
2021/11/25 08:00:27;;;;;;;55.50;32.53;;;;;;;3.41;87.74;100430.70;1638158;86;26518;-77
2021/11/25 08:02:55;;;;;;;45.70;28.42;;;;;;;3.43;87.67;100428.74;1652358;86;26013;-77
2021/11/25 08:05:26;;;;;;;46.70;28.32;;;;;;;3.43;87.66;100420.80;1613454;86;27112;-77
2021/11/25 08:07:56;;;;;;;46.28;27.67;;;;;;;3.44;87.80;100430.42;1645410;86;25843;-77
2021/11/25 08:10:25;;;;;;;50.70;30.20;;;;;;;3.46;87.69;100421.84;1633931;86;26174;-76
2021/11/25 08:12:58;;;;;;;47.65;28.87;;;;;;;3.46;87.70;100423.17;1654729;86;26577;-76
2021/11/25 08:15:26;;;;;;;46.23;27.20;;;;;;;3.48;87.77;100415.43;1634341;86;26082;-77
2021/11/25 08:17:53;;;;;;;50.25;28.42;;;;;;;3.50;87.78;100417.92;1617508;86;27543;-76
2021/11/25 08:20:20;;;;;;;46.65;26.42;;;;;;;3.51;87.62;100420.41;1635411;86;25839;-77
2021/11/25 08:22:47;;;;;;;49.30;27.73;;;;;;;3.53;87.53;100409.70;1657882;86;25764;-78
2021/11/25 08:25:14;;;;;;;48.83;29.25;;;;;;;3.55;87.72;100401.12;1620084;86;26697;-77
2021/11/25 08:27:41;;;;;;;52.15;29.63;;;;;;;3.60;87.64;100394.87;1636746;86;25943;-76
2021/11/25 08:30:13;;;;;;;46.92;27.87;;;;;;;3.62;87.50;100396.87;1640394;86;27653;-77
2021/11/25 08:32:42;;;;;;;47.35;27.00;;;;;;;3.64;87.30;100393.11;1635708;86;25759;-77
2021/11/25 08:35:10;;;;;;;48.68;27.02;;;;;;;3.66;87.36;100393.80;1636384;86;26243;-77
2021/11/25 08:37:39;;;;;;;47.58;28.25;;;;;;;3.69;87.39;100393.52;1642607;86;26844;-77
2021/11/25 08:40:10;;;;;;;45.58;26.95;;;;;;;3.74;87.50;100387.77;1650479;85;25957;-77
2021/11/25 08:42:37;;;;;;;;;;;;;;;3.78;87.71;100391.30;1650660;86;28272;-77
2021/11/25 08:45:06;;;;;;;49.75;30.08;;;;;;;3.83;87.71;100387.70;1611378;86;26447;-77
2021/11/25 08:47:33;;;;;;;50.10;28.23;;;;;;;3.87;87.96;100375.81;1631289;86;25836;-77
2021/11/25 08:50:00;;;;;;;48.10;27.77;;;;;;;3.93;87.73;100375.21;1654476;86;25920;-76
2021/11/25 08:52:27;;;;;;;43.10;26.50;;;;;;;3.99;87.78;100375.13;1620005;86;25780;-77
2021/11/25 08:54:54;;;;;;;50.17;27.35;;;;;;;4.04;87.63;100368.05;1605148;86;27514;-77
2021/11/25 08:57:21;;;;;;;48.52;27.85;;;;;;;4.07;87.35;100361.95;1633063;86;25760;-78
2021/11/25 08:59:48;;;;;;;49.18;27.37;;;;;;;4.11;87.52;100352.70;1630845;86;25914;-77
2021/11/25 09:02:15;;;;;;;46.90;26.75;;;;;;;4.16;87.13;100347.80;1618024;86;26610;-78
2021/11/25 09:04:42;;;;;;;47.27;27.05;;;;;;;4.20;87.15;100349.16;1585210;86;25724;-79
2021/11/25 09:07:09;;;;;;;44.13;25.50;;;;;;;4.24;87.22;100342.55;1629751;86;28250;-77
2021/11/25 09:09:36;;;;;;;44.70;27.15;;;;;;;4.29;87.23;100334.98;1622495;85;26094;-78
2021/11/25 09:12:04;;;;;;;45.50;27.60;;;;;;;4.34;87.46;100327.91;1626545;86;26662;-77
2021/11/25 09:14:31;;;;;;;46.70;27.58;;;;;;;4.40;87.31;100325.47;1616449;86;26037;-77
2021/11/25 09:16:58;;;;;;;48.92;27.10;;;;;;;4.46;87.16;100327.98;1632264;86;26622;-77
2021/11/25 09:19:25;;;;;;;43.87;27.55;;;;;;;4.50;87.28;100322.23;1656840;86;27607;-78
2021/11/25 09:21:52;;;;;;;44.93;25.90;;;;;;;4.57;87.44;100319.30;1615052;86;26779;-76
2021/11/25 09:24:21;;;;;;;41.73;24.27;;;;;;;4.61;87.17;100313.19;1607317;86;25960;-78
2021/11/25 09:26:48;;;;;;;43.38;24.10;;;;;;;4.65;86.96;100303.92;1630230;86;25825;-77
2021/11/25 09:29:15;;;;;;;39.15;23.60;;;;;;;4.69;86.89;100299.48;1657607;86;25835;-78
2021/11/25 09:31:43;;;;;;;38.05;21.23;;;;;;;4.75;86.90;100293.22;1635708;85;27600;-78
2021/11/25 09:34:10;;;;;;;37.28;23.70;;;;;;;4.80;86.69;100294.40;1609613;86;25921;-78
2021/11/25 09:36:39;;;;;;;38.10;21.52;;;;;;;4.84;86.54;100283.80;1633351;86;26591;-77
2021/11/25 09:39:08;;;;;;;39.67;23.55;;;;;;;4.90;86.74;100280.52;1654224;86;26589;-78
2021/11/25 09:41:36;;;;;;;37.67;22.40;;;;;;;4.94;86.58;100269.91;1617930;86;26064;-78
2021/11/25 09:44:04;;;;;;;32.20;19.92;;;;;;;5.01;86.74;100262.15;1606169;86;27620;-77
2021/11/25 09:46:40;;;;;;;34.83;20.97;;;;;;;5.05;86.47;100255.04;1574157;87;25981;-78
2021/11/25 09:49:07;;;;;;;39.40;22.52;;;;;;;5.11;86.36;100250.41;1593955;87;25884;-78
2021/11/25 09:51:34;;;;;;;38.42;22.30;;;;;;;5.16;86.25;100245.47;1577997;89;25944;-77
2021/11/25 09:54:02;;;;;;;36.15;22.10;;;;;;;5.19;86.13;100242.50;1588534;86;25947;-77
2021/11/25 09:56:30;;;;;;;32.42;20.68;;;;;;;5.24;85.90;100236.19;1596998;87;27912;-78
2021/11/25 09:58:57;;;;;;;38.05;21.20;;;;;;;5.28;85.70;100232.73;1607085;87;25860;-78
2021/11/25 10:01:25;;;;;;;33.55;21.33;;;;;;;5.30;85.33;100223.59;1588806;86;25964;-77
2021/11/25 10:03:54;;;;;;;35.58;21.17;;;;;;;5.33;85.18;100223.28;1582841;86;25963;-78
2021/11/25 10:06:30;;;;;;;32.10;20.35;;;;;;;5.37;85.23;100225.10;1610001;87;25733;-78
2021/11/25 10:08:57;;;;;;;71.10;38.38;;;;;;;5.40;85.07;100215.49;1629293;86;27524;-78
2021/11/25 10:11:35;;;;;;;37.78;23.42;;;;;;;5.44;85.29;100204.88;1612509;86;26022;-78
2021/11/25 10:14:14;;;;;;;39.00;23.73;;;;;;;5.48;85.08;100196.91;1660865;86;26008;-78
2021/11/25 10:16:46;;;;;;;36.68;23.42;;;;;;;5.51;85.14;100195.27;1639434;86;25854;-77
2021/11/25 10:19:22;;;;;;;36.45;21.93;;;;;;;5.56;85.16;100193.45;1661980;86;25726;-77
2021/11/25 10:21:53;;;;;;;35.70;22.02;;;;;;;5.60;85.13;100194.28;1625241;86;27533;-77
2021/11/25 10:24:40;;;;;;;35.25;20.20;;;;;;;5.62;84.97;100188.31;1661576;86;26740;-78
2021/11/25 10:27:23;;;;;;;29.48;18.42;;;;;;;5.65;85.04;100191.95;1638697;86;26261;-77
2021/11/25 10:30:12;;;;;;;28.70;18.20;;;;;;;5.69;84.84;100181.84;1661871;86;25831;-78
2021/11/25 10:32:39;;;;;;;31.77;19.17;;;;;;;5.71;84.28;100169.22;1625616;86;26544;-78
2021/11/25 10:35:27;;;;;;;29.87;19.35;;;;;;;5.71;83.82;100167.36;1616859;86;27471;-77
2021/11/25 10:38:44;;;;;;;30.72;18.82;;;;;;;5.74;83.62;100164.88;1661620;86;25740;-78
2021/11/25 10:40:27;;;;;;;32.53;18.92;;;;;;;5.75;83.54;100165.22;1645484;86;25839;-78
2021/11/25 10:42:54;;;;;;;32.15;19.55;;;;;;;5.76;83.23;100169.03;1598600;87;26586;-78
2021/11/25 10:45:22;;;;;;;27.17;16.42;;;;;;;5.76;83.44;100166.37;1588650;87;25895;-78
2021/11/25 10:48:03;;;;;;;28.62;18.62;;;;;;;5.79;82.29;100171.86;1584971;87;27258;-77
2021/11/25 10:50:31;;;;;;;;;;;;;;;5.75;82.39;100166.03;1631843;87;26425;-77
2021/11/25 10:53:09;;;;;;;29.07;17.35;;;;;;;5.75;81.88;100170.54;1632705;86;26503;-78
2021/11/25 10:55:41;;;;;;;27.40;15.83;;;;;;;5.70;80.83;100162.23;1600364;87;26414;-77
2021/11/25 10:58:07;;;;;;;33.40;19.57;;;;;;;5.67;79.87;100162.55;1655064;86;25758;-78
2021/11/25 11:00:41;;;;;;;36.03;20.82;;;;;;;5.62;80.67;100157.75;1631681;86;27636;-79
2021/11/25 11:03:12;;;;;;;32.35;20.08;;;;;;;5.60;79.41;100159.75;1630711;87;26603;-78
2021/11/25 11:05:57;;;;;;;;;;;;;;;5.57;79.71;100164.54;1609821;86;26079;-77
2021/11/25 11:08:43;;;;;;;36.13;21.12;;;;;;;5.49;78.59;100154.75;1644588;86;25931;-79
2021/11/25 11:11:11;;;;;;;39.73;21.97;;;;;;;5.40;79.63;100150.42;1593075;86;25820;-78
2021/11/25 11:14:00;;;;;;;33.85;20.35;;;;;;;5.39;80.33;100145.59;1575071;88;27448;-79
2021/11/25 11:16:29;;;;;;;40.55;23.00;;;;;;;5.38;80.29;100136.48;1618017;88;25927;-78
2021/11/25 11:19:00;;;;;;;38.33;22.42;;;;;;;5.37;80.60;100136.97;1620082;88;25368;-79
2021/11/25 11:21:51;;;;;;;39.38;22.67;;;;;;;5.37;80.34;100132.98;1572957;87;26496;-78
2021/11/25 11:24:26;;;;;;;41.20;24.55;;;;;;;5.36;80.64;100127.84;1605599;86;26154;-78
2021/11/25 11:26:58;;;;;;;36.98;21.73;;;;;;;5.38;81.05;100120.55;1618466;86;27458;-78
2021/11/25 11:29:29;;;;;;;44.10;24.25;;;;;;;5.40;81.03;100108.77;1589614;87;25984;-78
2021/11/25 11:32:01;;;;;;;41.25;22.02;;;;;;;5.42;81.11;100106.77;1565155;87;26411;-78